Latest Coastal Weather Observations for Esperance

IDW60701

Issued at 9:12 am WST Sunday 30 April 2017 (issued every 10 minutes, with the page automatically refreshed every 10 minutes)

About coastal observations | Map of coastal stations | Coastal observations for WA | Marine services | Other Formats
Station Details ID: 009789 Name: ESPERANCE Lat: -33.83 Lon: 121.89 Height: 25.0 m
Data from the previous 72 hours. | See also: Recent months at Esperance
Date/Time
WST
Temp
°C
Wind Pressure Rain since
9am
mm
Weather Cloud Vis
km
Sea
Height
m
Swell
Dir  Spd
kts
Gust
kts
hPa Trend Height
m
Period
s
Dir
30/09:00am 17.4 WNW 9 15 1019.7 S 0.0 - Mostly cloudy 10 - - - -
30/08:30am 16.8 WNW 9 14 1019.4 - 0.0 - - 10 - - - -
30/08:00am 15.0 NW 10 13 1019.3 - 0.0 - - 10 - - - -
30/07:30am 13.6 NW 9 12 1019.3 - 0.0 - - 10 - - - -
30/07:00am 12.3 NW 11 13 1019.2 - 0.0 - - 10 - - - -
30/06:30am 11.7 WNW 9 10 1019.2 - 0.0 - - 10 - - - -
30/06:00am 9.9 WNW 7 10 1018.9 F 0.0 - - 10 - - - -
30/05:30am 10.2 NNW 2 5 1019.0 - 0.0 - - 10 - - - -
30/05:00am 10.8 N 5 6 1019.1 - 0.0 - - 10 - - - -
30/04:30am 10.8 NW 4 5 1019.4 - 0.0 - - 10 - - - -
30/04:00am 10.2 NW 4 5 1019.4 - 0.0 - - 10 - - - -
30/03:30am 10.6 W 5 5 1019.4 - 0.0 - - 10 - - - -
30/03:00am 11.1 WNW 3 4 1019.4 F 0.0 - - 10 - - - -
30/02:30am 11.8 W 4 5 1019.7 - 0.0 - - 10 - - - -
30/02:00am 12.2 N 6 9 1019.8 - 0.0 - - 10 - - - -
30/01:30am 12.4 N 8 11 1019.6 - 0.0 - - 10 - - - -
30/01:00am 12.4 N 8 11 1020.0 - 0.0 - - 10 - - - -
30/12:30am 12.4 N 7 9 1020.5 - 0.0 - - 10 - - - -
30/12:00am 12.8 N 10 13 1020.7 F 0.0 - - 10 - - - -
 
Date/Time
WST
Temp
°C
Wind Pressure Rain since
9am
mm
Weather Cloud Vis
km
Sea
Height
m
Swell
Dir  Spd
kts
Gust
kts
hPa Trend Height
m
Period
s
Dir
29/11:30pm 12.9 NNE 9 13 1021.0 - 0.0 - - 10 - - - -
29/11:00pm 12.1 N 5 5 1021.5 - 0.0 - - 10 - - - -
29/10:30pm 12.6 N 4 6 1021.7 - 0.0 - - 10 - - - -
29/10:00pm 13.6 NNE 5 7 1021.9 - 0.0 - - 10 - - - -
29/09:30pm 13.5 NNE 6 8 1022.1 - 0.0 - - 10 - - - -
29/09:00pm 13.7 NNE 6 7 1022.5 F 0.0 - - 10 - - - -
29/08:30pm 13.9 NE 5 7 1022.6 - 0.0 - - 10 - - - -
29/08:00pm 13.9 NE 6 7 1022.6 - 0.0 - - 10 - - - -
29/07:30pm 14.3 NNE 5 6 1022.6 - 0.0 - - 10 - - - -
29/07:00pm 14.8 NE 5 6 1022.8 - 0.0 - - 10 - - - -
29/06:30pm 15.7 ENE 4 5 1022.8 - 0.0 - - 10 - - - -
29/06:00pm 16.7 E 5 6 1022.7 F 0.0 - - 10 - - - -
29/05:30pm 17.3 ESE 7 10 1022.5 - 0.0 - - 10 - - - -
29/05:00pm 17.7 SE 9 11 1022.4 - 0.0 - - 10 - - - -
29/04:30pm 18.2 SSE 11 13 1022.3 - 0.0 - - 10 - - - -
29/04:00pm 18.4 SSE 11 14 1022.3 - 0.0 - - 10 - - - -
29/03:30pm 18.6 SE 11 14 1022.4 - 0.0 - - 10 - - - -
29/03:00pm 18.9 SSE 11 14 1022.4 F 0.0 - - 10 - - - -
29/02:30pm 19.2 SSE 10 14 1022.6 - 0.0 - - 10 - - - -
29/02:00pm 19.4 SSE 9 12 1022.6 - 0.0 - - 10 - - - -
29/01:30pm 19.6 SSE 9 12 1022.8 - 0.0 - - 10 - - - -
29/01:00pm 19.4 SSE 9 11 1023.1 - 0.0 - - 10 - - - -
29/12:30pm 19.2 SE 9 11 1023.3 - 0.0 - - 10 - - - -
29/12:00pm 19.4 SE 9 11 1023.8 F 0.0 - - 10 - - - -
29/11:30am 19.2 SE 8 11 1024.5 - 0.0 - - 10 - - - -
29/11:00am 20.3 NW 4 7 1025.0 - 0.0 - - 10 - - - -
29/10:30am 20.7 NW 5 7 1025.3 - 0.0 - - 10 - - - -
29/10:00am 20.4 NW 5 7 1025.6 - 0.0 - - 10 - - - -
29/09:30am 18.5 NW 4 5 1025.9 - 0.0 - - 10 - - - -
29/09:00am 16.3 NW 2 4 1026.1 F 0.0 - - 10 - - - -
29/08:30am 13.9 N 3 4 1026.2 - 0.0 - - 10 - - - -
29/08:00am 12.9 CALM 0 0 1026.4 - 0.0 - - 10 - - - -
29/07:30am 12.0 NW 3 4 1026.5 - 0.0 - - 10 - - - -
29/07:00am 10.1 WNW 5 6 1026.4 - 0.0 - - 10 - - - -
29/06:30am 9.7 W 4 6 1026.3 - 0.0 - - 10 - - - -
29/06:00am 10.2 NNW 4 5 1026.2 F 0.0 - - 10 - - - -
29/05:30am 10.9 N 6 8 1026.1 - 0.0 - - 10 - - - -
29/05:00am 10.8 N 5 7 1026.0 - 0.0 - - 10 - - - -
29/04:30am 10.6 N 6 7 1026.0 - 0.0 - - 10 - - - -
29/04:00am 11.2 N 6 8 1025.8 - 0.0 - - 10 - - - -
29/03:30am 11.8 NNE 7 9 1025.6 - 0.0 - - 10 - - - -
29/03:00am 11.9 NNE 7 9 1025.6 F 0.0 - - 10 - - - -
29/02:30am 12.1 NNE 7 10 1025.7 - 0.0 - - 10 - - - -
29/02:00am 12.6 N 8 10 1025.9 - 0.0 - - 10 - - - -
29/01:30am 12.2 N 7 10 1026.1 - 0.0 - - 10 - - - -
29/01:00am 12.5 N 8 10 1026.2 - 0.0 - - 10 - - - -
29/12:30am 12.4 N 8 10 1026.1 - 0.0 - - 10 - - - -
29/12:00am 11.5 N 6 7 1026.1 F 0.0 - - 10 - - - -
 
Date/Time
WST
Temp
°C
Wind Pressure Rain since
9am
mm
Weather Cloud Vis
km
Sea
Height
m
Swell
Dir  Spd
kts
Gust
kts
hPa Trend Height
m
Period
s
Dir
28/11:30pm 12.4 NNE 4 5 1026.4 - 0.0 - - 10 - - - -
28/11:00pm 12.9 N 3 3 1026.6 - 0.0 - - 10 - - - -
28/10:30pm 13.6 NNE 7 10 1026.7 - 0.0 - - 10 - - - -
28/10:00pm 13.6 NNE 4 5 1027.1 - 0.0 - - 10 - - - -
28/09:30pm 14.4 NNE 3 4 1027.1 - 0.0 - - 10 - - - -
28/09:00pm 14.7 NNE 3 5 1027.1 F 0.0 - Mostly cloudy 10 - - - -
28/08:30pm 15.6 ENE 3 4 1027.0 - 0.0 - - 10 - - - -
28/08:00pm 15.8 E 3 4 1027.1 - 0.0 - - 10 - - - -
28/07:30pm 16.2 E 5 8 1026.9 - 0.0 - - 10 - - - -
28/07:00pm 16.7 E 5 8 1026.9 - 0.0 - - 10 - - - -
28/06:30pm 17.1 E 5 9 1026.5 - 0.0 - - 10 - - - -
28/06:00pm 17.7 ESE 5 8 1026.4 R 0.0 - Cloudy 10 - - - -
28/05:30pm 18.7 ESE 7 10 1026.1 - 0.0 - - 10 - - - -
28/05:00pm 18.8 SE 7 11 1026.1 - 0.0 - - 10 - - - -
28/04:30pm 19.3 SE 8 11 1025.9 - 0.0 - - 10 - - - -
28/04:00pm 19.3 SSE 9 11 1025.8 - 0.0 - - 10 - - - -
28/03:30pm 19.7 SSE 7 9 1025.7 - 0.0 - - 10 - - - -
28/03:00pm 19.8 SSE 9 11 1025.7 R 0.0 - Mostly cloudy 10 - - - -
28/02:30pm 20.0 SSE 8 10 1025.7 - 0.0 - - 10 - - - -
28/02:00pm 20.1 SSE 8 11 1025.6 - 0.0 - - 10 - - - -
28/01:30pm 20.2 SSE 8 10 1025.9 - 0.0 - - 10 - - - -
28/01:00pm 20.9 SE 8 11 1026.0 - 0.0 - - 10 - - - -
28/12:30pm 22.1 SSE 6 10 1026.4 - 0.0 - - 10 - - - -
28/12:00pm 23.7 N 5 9 1026.8 F 0.0 - Partly cloudy 10 - - - -
28/11:30am 23.2 NNE 4 5 1027.2 - 0.0 - - 10 - - - -
28/11:00am 22.3 NNW 4 6 1027.6 - 0.0 - - 10 - - - -
28/10:30am 21.9 NNW 6 8 1027.9 - 0.0 - - 10 - - - -
28/10:00am 20.8 NNW 8 10 1028.1 - 0.0 - - 10 - - - -
28/09:30am 20.0 NNW 6 8 1028.4 - 0.0 - - 10 - - - -
28/09:00am 17.5 N 5 8 1028.7 R 0.0 - - 10 - - - -
28/08:30am 15.0 N 6 7 1028.6 - 0.0 - - 10 - - - -
28/08:00am 13.1 N 6 8 1028.5 - 0.0 - - 10 - - - -
28/07:30am 12.5 N 7 9 1028.2 - 0.0 - - 10 - - - -
28/07:00am 11.9 N 8 11 1028.1 - 0.0 - - 10 - - - -
28/06:30am 11.9 N 7 9 1027.8 - 0.0 - - 10 - - - -
28/06:00am 11.7 N 7 10 1027.7 R 0.0 - Mostly cloudy 10 - - - -
28/05:30am 11.7 N 8 11 1027.4 - 0.0 - - 10 - - - -
28/05:00am 12.1 N 9 12 1027.0 - 0.0 - - 10 - - - -
28/04:30am 12.3 N 9 15 1026.7 - 0.0 - - 10 - - - -
28/04:00am 12.2 N 8 12 1026.6 - 0.0 - - 10 - - - -
28/03:30am 12.4 N 8 11 1026.3 - 0.0 - - 10 - - - -
28/03:00am 12.5 NNE 7 10 1026.4 F 0.0 - - 10 - - - -
28/02:30am 13.0 NNE 8 11 1026.3 - 0.0 - - 10 - - - -
28/02:00am 13.5 N 9 11 1026.4 - 0.0 - - 10 - - - -
28/01:30am 13.3 N 8 9 1026.5 - 0.0 - - 10 - - - -
28/01:00am 13.8 NNE 7 11 1026.6 - 0.0 - - 10 - - - -
28/12:30am 13.8 NNE 8 11 1026.8 - 0.0 - - 10 - - - -
28/12:00am 13.9 NNE 8 12 1026.9 F 0.0 - Mostly clear 10 - - - -
 
Date/Time
WST
Temp
°C
Wind Pressure Rain since
9am
mm
Weather Cloud Vis
km
Sea
Height
m
Swell
Dir  Spd
kts
Gust
kts
hPa Trend Height
m
Period
s
Dir
27/11:30pm 14.1 NNE 6 7 1027.0 - 0.0 - - 10 - - - -
27/11:00pm 14.5 NNE 6 7 1027.2 - 0.0 - - 10 - - - -
27/10:30pm 14.5 NNE 5 6 1027.3 - 0.0 - - 10 - - - -
27/10:00pm 14.6 NNE 6 7 1027.5 - 0.0 - - 10 - - - -
27/09:30pm 15.0 NE 6 7 1027.6 - 0.0 - - 10 - - - -
27/09:00pm 15.3 NNE 6 7 1027.7 R 0.0 - Partly cloudy 10 - - - -
27/08:30pm 15.3 NNE 3 4 1027.4 - 0.0 - - 10 - - - -
27/08:00pm 16.0 NE 4 4 1027.3 - 0.0 - - 10 - - - -
27/07:30pm 16.2 NE 3 4 1027.0 - 0.0 - - 10 - - - -
27/07:00pm 16.1 ESE 3 5 1026.9 - 0.0 - - 10 - - - -
27/06:30pm 16.8 E 4 5 1026.7 - 0.0 - - 10 - - - -
27/06:00pm 17.4 E 5 7 1026.5 S 0.0 - Mostly clear 10 - - - -
27/05:30pm 18.1 ESE 5 8 1026.2 - 0.0 - - 10 - - - -
27/05:00pm 18.8 ESE 8 10 1026.1 - 0.0 - - 10 - - - -
27/04:30pm 19.6 SE 7 9 1026.1 - 0.0 - - 10 - - - -
27/04:00pm 19.2 SSE 7 9 1026.0 - 0.0 - - 10 - - - -
27/03:30pm 19.7 SSE 7 9 1026.0 - 0.0 - - 10 - - - -
27/03:00pm 20.0 S 7 10 1025.9 F 0.0 - - 10 - - - -
27/02:30pm 20.4 SE 6 9 1025.8 - 0.0 - - 10 - - - -
27/02:00pm 21.4 SSE 9 13 1026.0 - 0.0 - - 10 - - - -
27/01:30pm 23.4 NNE 6 8 1026.2 - 0.0 - - 10 - - - -
27/01:00pm 22.4 WNW 4 7 1026.6 - 0.0 - - 10 - - - -
27/12:30pm 23.0 NNW 5 7 1027.0 - 0.0 - - 10 - - - -
27/12:00pm 21.7 NNW 5 8 1027.5 F 0.0 - Mostly clear 10 - - - -
27/11:30am 21.7 NNW 3 7 1028.1 - 0.0 - Mostly clear 10 - - - -
27/11:00am 22.4 NNW 6 9 1028.5 - 0.0 - - 10 - - - -
27/10:30am 21.4 NNW 7 9 1028.8 - 0.0 - - 10 - - - -
27/10:00am 20.3 NNW 6 8 1029.3 - 0.0 - - 10 - - - -
27/09:30am 18.4 N 6 8 1029.6 - 0.0 - - 10 - - - -

Other Formats:

Comma delimited format used in spreadsheet applications
http://www.bom.gov.au/fwo/IDW60701/IDW60701.94638.axf

JavaScript Object Notation format (JSON) in row-major order
http://www.bom.gov.au/fwo/IDW60701/IDW60701.94638.json